Time;durP1;ratioP1;P1;durP2;ratioP2;P2;SDS_P1;SDS_P2;PMS_P1;PMS_P2;Temp;Humidity;BMP_temperature;BMP_pressure;BME280_temperature;BME280_humidity;BME280_pressure;Samples;Min_cycle;Max_cycle;Signal;HPM_P1;HPM_P2
2023/09/06 00:01:23;;;;;;;5.40;2.72;;;15.20;99.90;;;;;;5115396;28;20035;-70
2023/09/06 00:03:49;;;;;;;6.10;3.20;;;15.20;99.90;;;;;;5115361;28;20438;-70
2023/09/06 00:06:14;;;;;;;3.83;2.88;;;15.20;99.90;;;;;;5115056;28;20365;-70
2023/09/06 00:08:40;;;;;;;5.53;2.90;;;15.10;99.90;;;;;;5115434;28;20032;-70
2023/09/06 00:11:06;;;;;;;4.38;3.08;;;15.10;99.90;;;;;;5115632;28;20039;-70
2023/09/06 00:13:33;;;;;;;4.70;3.05;;;15.10;99.90;;;;;;5115166;28;20373;-70
2023/09/06 00:15:59;;;;;;;4.60;2.90;;;15.10;99.90;;;;;;5115045;28;20027;-71
2023/09/06 00:18:27;;;;;;;5.20;2.80;;;15.10;99.90;;;;;;5115029;28;20027;-71
2023/09/06 00:20:53;;;;;;;5.82;3.25;;;15.00;99.90;;;;;;5115139;28;20080;-71
2023/09/06 00:23:20;;;;;;;5.03;2.83;;;15.00;99.90;;;;;;5096715;28;20032;-70
2023/09/06 00:25:46;;;;;;;4.47;3.05;;;14.90;99.90;;;;;;5114905;28;20073;-70
2023/09/06 00:28:12;;;;;;;3.75;2.70;;;14.90;99.90;;;;;;5114765;28;20023;-70
2023/09/06 00:30:44;;;;;;;6.22;3.00;;;14.90;99.90;;;;;;5114812;28;20524;-70
2023/09/06 00:33:10;;;;;;;6.45;3.47;;;14.80;99.90;;;;;;5096507;28;20028;-70
2023/09/06 00:35:41;;;;;;;4.82;3.00;;;14.80;99.90;;;;;;5115030;28;20055;-70
2023/09/06 00:38:07;;;;;;;5.38;2.65;;;14.70;99.90;;;;;;5096693;28;20032;-73
2023/09/06 00:40:36;;;;;;;4.47;3.20;;;14.70;99.90;;;;;;5115064;28;20119;-73
2023/09/06 00:43:03;;;;;;;4.68;3.60;;;14.60;99.90;;;;;;5114913;28;20464;-74
2023/09/06 00:45:45;;;;;;;4.75;3.03;;;14.60;99.90;;;;;;5114612;28;20051;-74
2023/09/06 00:48:21;;;;;;;5.78;3.00;;;14.50;99.90;;;;;;5114223;28;20098;-74
2023/09/06 00:50:53;;;;;;;5.13;3.22;;;14.50;99.90;;;;;;5114777;28;20030;-72
2023/09/06 00:53:20;;;;;;;4.20;3.33;;;14.40;99.90;;;;;;5114489;28;20544;-73
2023/09/06 00:55:48;;;;;;;5.82;3.22;;;14.40;99.90;;;;;;5096103;28;20077;-74
2023/09/06 00:58:18;;;;;;;4.38;2.55;;;14.30;99.90;;;;;;5114263;28;20476;-74
2023/09/06 01:00:44;;;;;;;4.07;2.80;;;14.40;99.90;;;;;;5114291;28;20035;-73
2023/09/06 01:03:10;;;;;;;4.70;3.33;;;14.30;99.90;;;;;;5114528;28;20035;-73
2023/09/06 01:05:45;;;;;;;5.72;3.53;;;14.30;99.90;;;;;;5113246;28;20265;-73
2023/09/06 01:08:18;;;;;;;3.92;2.95;;;14.30;99.90;;;;;;5113421;28;20027;-73
2023/09/06 01:10:44;;;;;;;4.38;2.83;;;14.30;99.90;;;;;;5113428;28;20023;-73
2023/09/06 01:13:10;;;;;;;5.25;3.08;;;14.30;99.90;;;;;;5111230;28;20068;-73
2023/09/06 01:15:41;;;;;;;4.63;3.00;;;14.30;99.90;;;;;;5095337;28;20023;-73
2023/09/06 01:18:08;;;;;;;4.68;3.08;;;14.30;99.90;;;;;;5111526;28;20513;-73
2023/09/06 01:20:52;;;;;;;4.65;2.90;;;14.20;99.90;;;;;;5095144;28;20063;-73
2023/09/06 01:23:40;;;;;;;4.88;2.90;;;14.20;99.90;;;;;;5106545;28;20149;-73
2023/09/06 01:26:06;;;;;;;4.32;3.13;;;14.10;99.90;;;;;;5113458;28;20055;-73
2023/09/06 01:28:33;;;;;;;3.88;2.80;;;14.00;99.90;;;;;;5109657;28;20023;-73
2023/09/06 01:31:01;;;;;;;4.22;2.97;;;13.90;99.90;;;;;;5113029;28;20102;-73
2023/09/06 01:33:28;;;;;;;5.97;2.67;;;13.90;99.90;;;;;;5094872;28;20116;-73
2023/09/06 01:35:55;;;;;;;4.70;2.70;;;13.80;99.90;;;;;;5113169;28;20425;-73
2023/09/06 01:38:21;;;;;;;4.07;2.78;;;13.80;99.90;;;;;;5113100;28;20141;-73
2023/09/06 01:40:47;;;;;;;3.78;2.35;;;13.70;99.90;;;;;;5095013;28;20032;-73
2023/09/06 01:43:13;;;;;;;4.32;2.63;;;13.70;99.90;;;;;;5093209;28;20031;-73
2023/09/06 01:45:48;;;;;;;4.00;2.50;;;13.80;99.90;;;;;;5093393;28;20020;-73
2023/09/06 01:48:14;;;;;;;4.97;2.50;;;13.80;99.90;;;;;;5093291;28;20157;-73
2023/09/06 01:50:41;;;;;;;4.88;2.22;;;13.80;99.90;;;;;;5093486;28;20056;-73
2023/09/06 01:53:07;;;;;;;3.67;2.30;;;13.80;99.90;;;;;;5093272;28;20384;-73
2023/09/06 01:55:32;;;;;;;4.30;2.47;;;13.80;99.90;;;;;;5075736;28;20036;-73
2023/09/06 01:57:58;;;;;;;4.90;2.50;;;13.70;99.90;;;;;;5075600;28;20035;-73
2023/09/06 02:00:28;;;;;;;6.90;2.67;;;13.70;99.90;;;;;;5094251;28;20081;-73
2023/09/06 02:03:00;;;;;;;3.65;2.60;;;13.60;99.90;;;;;;5097262;28;20020;-73
2023/09/06 02:05:26;;;;;;;4.50;2.88;;;13.60;99.90;;;;;;5079179;28;20034;-73
2023/09/06 02:07:52;;;;;;;6.40;2.72;;;13.60;99.90;;;;;;5097185;28;20455;-73
2023/09/06 02:10:18;;;;;;;4.60;2.67;;;13.50;99.90;;;;;;5078816;28;20022;-73
2023/09/06 02:12:44;;;;;;;4.30;2.67;;;13.50;99.90;;;;;;5078977;28;20030;-74
2023/09/06 02:15:14;;;;;;;3.90;2.42;;;13.40;99.90;;;;;;5097134;28;20485;-74
2023/09/06 02:17:44;;;;;;;3.08;2.08;;;13.40;99.90;;;;;;5079679;28;20055;-73
2023/09/06 02:20:17;;;;;;;3.50;2.35;;;13.40;99.90;;;;;;5097185;28;20028;-72
2023/09/06 02:22:43;;;;;;;5.15;2.70;;;13.30;99.90;;;;;;5097009;28;20031;-74
2023/09/06 02:25:09;;;;;;;4.25;2.80;;;13.30;99.90;;;;;;5096890;28;20032;-73
2023/09/06 02:27:36;;;;;;;4.43;2.80;;;13.30;99.90;;;;;;5096767;28;20024;-73
2023/09/06 02:30:06;;;;;;;4.07;2.72;;;13.20;99.90;;;;;;5097039;28;20031;-73
2023/09/06 02:32:32;;;;;;;3.80;2.47;;;13.20;99.90;;;;;;5096909;28;20028;-73
2023/09/06 02:34:58;;;;;;;3.72;2.40;;;13.20;99.90;;;;;;5097161;28;20025;-74
2023/09/06 02:37:24;;;;;;;4.68;2.95;;;13.20;99.90;;;;;;5078960;28;20024;-73
2023/09/06 02:39:53;;;;;;;4.40;2.47;;;13.20;99.90;;;;;;5096539;28;20028;-73
2023/09/06 02:42:22;;;;;;;4.22;2.22;;;13.20;99.90;;;;;;5096440;28;20016;-73
2023/09/06 02:44:47;;;;;;;3.22;2.38;;;13.10;99.90;;;;;;5096546;28;20103;-74
2023/09/06 02:47:17;;;;;;;3.35;2.28;;;13.10;99.90;;;;;;5096384;28;20111;-74
2023/09/06 02:49:47;;;;;;;3.60;2.30;;;13.10;99.90;;;;;;5096432;28;20031;-73
2023/09/06 02:52:28;;;;;;;3.47;2.35;;;13.00;99.90;;;;;;5095905;28;20016;-73
2023/09/06 02:54:57;;;;;;;9.02;2.70;;;13.00;99.90;;;;;;5096310;28;20028;-73
2023/09/06 02:57:24;;;;;;;4.57;2.45;;;13.00;99.90;;;;;;5078088;28;20024;-73
2023/09/06 02:59:51;;;;;;;3.75;2.30;;;12.90;99.90;;;;;;5096224;28;20392;-73
2023/09/06 03:02:18;;;;;;;3.50;2.03;;;12.80;99.90;;;;;;5096106;28;20119;-73
2023/09/06 03:04:44;;;;;;;3.85;2.65;;;12.80;99.90;;;;;;5096197;28;20025;-74
2023/09/06 03:07:09;;;;;;;3.63;2.60;;;12.70;99.90;;;;;;5096266;28;20036;-74
2023/09/06 03:09:38;;;;;;;3.97;2.72;;;12.70;99.90;;;;;;5095987;28;20032;-73
2023/09/06 03:12:11;;;;;;;4.68;2.33;;;12.70;99.90;;;;;;5094573;28;20024;-74
2023/09/06 03:14:48;;;;;;;4.35;2.30;;;12.70;99.90;;;;;;5096206;28;20032;-73
2023/09/06 03:17:22;;;;;;;3.80;2.78;;;12.60;99.90;;;;;;5095896;28;20130;-74
2023/09/06 03:19:53;;;;;;;3.78;2.42;;;12.60;99.90;;;;;;5095833;28;20059;-74
2023/09/06 03:22:21;;;;;;;2.70;1.92;;;12.60;99.90;;;;;;5096133;28;20020;-73
2023/09/06 03:24:48;;;;;;;3.55;2.28;;;12.50;99.90;;;;;;5095705;28;20564;-73
2023/09/06 03:27:16;;;;;;;4.78;2.53;;;12.50;99.90;;;;;;5095242;28;20036;-73
2023/09/06 03:29:50;;;;;;;3.53;2.28;;;12.50;99.90;;;;;;5095665;28;20055;-74
2023/09/06 03:32:17;;;;;;;4.47;2.40;;;12.50;99.90;;;;;;5095572;28;20069;-73
2023/09/06 03:34:45;;;;;;;3.80;2.40;;;12.50;99.90;;;;;;5095625;28;20020;-73
2023/09/06 03:37:11;;;;;;;4.28;2.85;;;12.50;99.90;;;;;;5095548;28;20012;-73
2023/09/06 03:39:41;;;;;;;3.53;2.50;;;12.50;99.90;;;;;;5095690;28;20024;-74
2023/09/06 03:42:10;;;;;;;5.72;3.17;;;12.50;99.90;;;;;;5095318;28;20020;-74
2023/09/06 03:44:36;;;;;;;4.85;3.10;;;12.50;99.90;;;;;;5095407;28;20043;-74
2023/09/06 03:47:05;;;;;;;4.38;2.70;;;12.40;99.90;;;;;;5095206;28;20526;-73
2023/09/06 03:49:36;;;;;;;3.38;2.55;;;12.40;99.90;;;;;;5095221;28;20530;-73
2023/09/06 03:52:04;;;;;;;4.13;2.70;;;12.40;99.90;;;;;;5095178;28;20495;-73
2023/09/06 03:54:32;;;;;;;5.00;3.30;;;12.30;99.90;;;;;;5095001;28;20081;-73
2023/09/06 03:56:57;;;;;;;4.15;2.85;;;12.30;99.90;;;;;;5076876;28;20099;-73
2023/09/06 03:59:24;;;;;;;4.00;2.88;;;12.30;99.90;;;;;;5095084;28;20042;-73
2023/09/06 04:01:51;;;;;;;5.70;3.03;;;12.30;99.90;;;;;;5095282;28;20030;-73
2023/09/06 04:04:17;;;;;;;5.45;2.92;;;12.30;99.90;;;;;;5095329;28;20369;-74
2023/09/06 04:06:43;;;;;;;4.20;2.45;;;12.20;99.90;;;;;;5095596;28;20027;-73
2023/09/06 04:09:13;;;;;;;4.47;2.58;;;12.20;99.90;;;;;;5077243;28;20084;-73
2023/09/06 04:11:40;;;;;;;6.22;2.45;;;12.20;99.90;;;;;;5095216;28;20077;-73
2023/09/06 04:14:07;;;;;;;3.88;2.15;;;12.20;99.90;;;;;;5077192;28;20028;-74
2023/09/06 04:16:37;;;;;;;3.40;2.20;;;12.10;99.90;;;;;;5094698;28;20023;-73
2023/09/06 04:19:03;;;;;;;4.38;2.58;;;12.10;99.90;;;;;;5094679;28;20414;-73
2023/09/06 04:21:29;;;;;;;6.03;2.63;;;12.10;99.90;;;;;;5094570;28;20071;-73
2023/09/06 04:23:55;;;;;;;4.30;2.45;;;12.10;99.90;;;;;;5094166;28;20488;-73
2023/09/06 04:26:20;;;;;;;4.43;2.75;;;12.00;99.90;;;;;;5094623;28;20504;-73
2023/09/06 04:28:46;;;;;;;4.00;2.35;;;12.00;99.90;;;;;;5076265;28;20043;-73
2023/09/06 04:31:12;;;;;;;4.85;2.70;;;12.00;99.90;;;;;;5076440;28;20028;-72
2023/09/06 04:33:37;;;;;;;4.50;2.40;;;11.90;99.90;;;;;;5093755;28;20455;-72
2023/09/06 04:36:04;;;;;;;5.75;2.45;;;11.90;99.90;;;;;;5094298;28;20028;-73
2023/09/06 04:38:31;;;;;;;3.85;2.40;;;11.90;99.90;;;;;;5076151;28;20028;-73
2023/09/06 04:40:58;;;;;;;4.22;3.05;;;11.80;99.90;;;;;;5076040;28;20057;-73
2023/09/06 04:43:25;;;;;;;6.47;2.70;;;11.80;99.90;;;;;;5094277;28;20465;-73
2023/09/06 04:45:51;;;;;;;7.88;2.92;;;11.80;99.90;;;;;;5093961;28;20512;-73
2023/09/06 04:48:17;;;;;;;3.95;2.70;;;11.80;99.90;;;;;;5092621;28;20085;-73
2023/09/06 04:50:45;;;;;;;3.88;2.40;;;11.80;99.90;;;;;;5075155;28;20028;-73
2023/09/06 04:53:11;;;;;;;4.75;2.30;;;11.70;99.90;;;;;;5093114;28;20115;-73
2023/09/06 04:55:39;;;;;;;5.00;2.70;;;11.70;99.90;;;;;;5093598;28;20396;-73
2023/09/06 04:58:07;;;;;;;3.58;2.30;;;11.70;99.90;;;;;;5092607;28;20103;-72
2023/09/06 05:00:37;;;;;;;4.50;2.70;;;11.70;99.90;;;;;;5075068;28;20026;-72
2023/09/06 05:03:08;;;;;;;3.75;2.50;;;11.70;99.90;;;;;;5093990;28;20024;-73
2023/09/06 05:05:35;;;;;;;;;;;11.70;99.90;;;;;;5094447;28;20383;-73
2023/09/06 05:08:01;;;;;;;4.97;2.72;;;11.60;99.90;;;;;;5093680;28;19912;-73
2023/09/06 05:10:26;;;;;;;4.45;3.00;;;11.60;99.90;;;;;;5075624;28;20558;-73
2023/09/06 05:12:52;;;;;;;5.05;2.60;;;11.60;99.90;;;;;;5075584;28;20042;-73
2023/09/06 05:15:18;;;;;;;3.92;2.70;;;11.50;99.90;;;;;;5093012;28;20551;-73
2023/09/06 05:17:44;;;;;;;4.03;2.70;;;11.50;99.90;;;;;;5113414;28;20083;-73
2023/09/06 05:20:33;;;;;;;3.85;2.53;;;11.50;99.90;;;;;;5094168;28;20403;-72
2023/09/06 05:23:01;;;;;;;5.25;2.63;;;11.50;99.90;;;;;;5113511;28;20027;-73
2023/09/06 05:25:27;;;;;;;5.07;2.55;;;11.40;99.90;;;;;;5113159;28;20038;-73
2023/09/06 05:28:10;;;;;;;5.20;2.85;;;11.40;99.90;;;;;;5106829;28;20388;-72
2023/09/06 05:30:46;;;;;;;4.22;2.80;;;11.40;99.90;;;;;;5113305;28;20055;-73
2023/09/06 05:33:13;;;;;;;4.30;2.70;;;11.40;99.90;;;;;;5113125;28;20468;-73
2023/09/06 05:35:41;;;;;;;5.00;2.70;;;11.40;99.90;;;;;;5083736;28;20059;-73
2023/09/06 05:38:09;;;;;;;4.97;2.78;;;11.50;99.90;;;;;;5093720;28;20028;-73
2023/09/06 05:40:35;;;;;;;4.93;2.85;;;11.50;99.90;;;;;;5075503;28;20071;-73
2023/09/06 05:43:01;;;;;;;4.38;2.72;;;11.50;99.90;;;;;;5093846;28;20020;-73
2023/09/06 05:45:27;;;;;;;3.70;2.42;;;11.60;99.90;;;;;;5075739;28;20349;-73
2023/09/06 05:47:53;;;;;;;4.15;2.53;;;11.60;99.90;;;;;;5093433;28;20492;-73
2023/09/06 05:50:19;;;;;;;4.20;2.67;;;11.70;99.90;;;;;;5093697;28;20012;-71
2023/09/06 05:52:46;;;;;;;3.97;2.65;;;11.70;99.90;;;;;;5092728;28;20020;-72
2023/09/06 05:55:12;;;;;;;4.72;2.80;;;11.80;99.90;;;;;;5092992;28;20028;-71
2023/09/06 05:57:38;;;;;;;7.45;3.03;;;11.80;99.90;;;;;;5092756;28;20428;-72
2023/09/06 06:00:12;;;;;;;6.82;3.13;;;11.80;99.90;;;;;;5092813;28;20111;-72
2023/09/06 06:02:38;;;;;;;4.95;3.15;;;11.80;99.90;;;;;;5093002;28;20036;-72
2023/09/06 06:05:04;;;;;;;6.25;3.45;;;11.90;99.90;;;;;;5111790;28;20111;-72
2023/09/06 06:07:30;;;;;;;4.68;3.13;;;11.90;99.90;;;;;;5112586;28;20119;-72
2023/09/06 06:09:55;;;;;;;5.63;3.38;;;12.00;99.90;;;;;;5112905;28;20038;-71
2023/09/06 06:12:22;;;;;;;5.70;3.20;;;12.00;99.90;;;;;;5113151;28;20020;-72
2023/09/06 06:14:54;;;;;;;5.03;3.00;;;12.10;99.90;;;;;;5113560;28;20356;-72
2023/09/06 06:17:19;;;;;;;5.35;3.50;;;12.10;99.90;;;;;;5113509;28;20019;-71
2023/09/06 06:19:49;;;;;;;4.78;2.80;;;12.20;99.90;;;;;;5113453;28;20047;-71
2023/09/06 06:22:15;;;;;;;6.85;3.20;;;12.20;99.90;;;;;;5113659;28;20020;-71
2023/09/06 06:24:44;;;;;;;4.30;2.90;;;12.20;99.90;;;;;;5095577;28;20103;-71
2023/09/06 06:27:10;;;;;;;4.43;3.05;;;12.30;99.90;;;;;;5113070;28;20110;-72
2023/09/06 06:29:35;;;;;;;6.03;3.08;;;12.30;99.90;;;;;;5113642;28;20099;-71
2023/09/06 06:32:01;;;;;;;6.38;3.20;;;12.40;99.90;;;;;;5113281;28;20515;-72
2023/09/06 06:34:27;;;;;;;5.45;3.50;;;12.50;99.90;;;;;;5094510;28;20076;-71
2023/09/06 06:36:52;;;;;;;6.88;3.80;;;12.50;99.90;;;;;;5113311;28;20020;-71
2023/09/06 06:39:18;;;;;;;6.38;3.92;;;12.60;99.90;;;;;;5113273;28;20024;-71
2023/09/06 06:41:44;;;;;;;6.25;3.70;;;12.70;99.90;;;;;;5113163;28;20023;-71
2023/09/06 06:44:10;;;;;;;9.48;4.20;;;12.80;99.90;;;;;;5113204;28;20035;-71
2023/09/06 06:46:38;;;;;;;6.55;4.20;;;12.90;99.90;;;;;;5114449;28;20028;-72
2023/09/06 06:49:09;;;;;;;5.55;3.78;;;13.00;99.90;;;;;;5116782;28;20495;-71
2023/09/06 06:51:40;;;;;;;9.25;4.85;;;13.10;99.90;;;;;;5116932;28;20072;-72
2023/09/06 06:54:07;;;;;;;;;;;13.20;99.90;;;;;;5098859;28;20035;-72
2023/09/06 06:56:37;;;;;;;7.57;5.18;;;13.20;99.90;;;;;;5098545;28;19953;-72
2023/09/06 06:59:03;;;;;;;10.27;5.50;;;13.30;99.90;;;;;;5116651;28;20023;-72
2023/09/06 07:01:30;;;;;;;8.63;5.07;;;13.30;99.90;;;;;;5116691;28;20034;-71
2023/09/06 07:03:57;;;;;;;8.35;5.57;;;13.40;99.90;;;;;;5116678;28;20027;-71
2023/09/06 07:06:23;;;;;;;9.63;5.50;;;13.40;99.90;;;;;;5116822;28;20026;-72
2023/09/06 07:08:49;;;;;;;10.25;5.28;;;13.50;99.90;;;;;;5116479;28;20023;-72
2023/09/06 07:11:16;;;;;;;12.18;5.20;;;13.60;99.90;;;;;;5117041;28;20023;-72
2023/09/06 07:13:42;;;;;;;8.45;4.57;;;13.70;99.90;;;;;;5116334;28;20019;-72
2023/09/06 07:16:09;;;;;;;7.28;5.25;;;13.80;99.90;;;;;;5098256;28;20073;-71
2023/09/06 07:18:34;;;;;;;10.07;5.32;;;13.90;99.90;;;;;;5116296;28;20032;-72
2023/09/06 07:21:00;;;;;;;10.07;5.60;;;14.00;99.90;;;;;;5116561;28;20032;-72
2023/09/06 07:23:27;;;;;;;10.10;5.78;;;14.10;99.90;;;;;;5116506;28;20024;-72
2023/09/06 07:25:53;;;;;;;9.90;5.72;;;14.20;99.90;;;;;;5116182;28;20024;-72
2023/09/06 07:28:22;;;;;;;9.55;5.43;;;14.30;99.90;;;;;;5116248;28;20027;-72
2023/09/06 07:30:48;;;;;;;10.07;5.97;;;14.40;99.90;;;;;;5116509;28;20459;-72
2023/09/06 07:33:14;;;;;;;10.63;6.18;;;14.50;99.90;;;;;;5116509;28;20080;-71
2023/09/06 07:35:43;;;;;;;8.38;5.78;;;14.60;99.90;;;;;;5116550;28;20023;-71
2023/09/06 07:38:08;;;;;;;12.30;7.20;;;14.80;99.90;;;;;;5115892;28;20488;-72
2023/09/06 07:40:34;;;;;;;10.52;6.63;;;14.90;99.90;;;;;;5115751;28;20032;-72
2023/09/06 07:43:00;;;;;;;10.90;7.18;;;14.90;99.90;;;;;;5115757;28;20034;-72
2023/09/06 07:45:26;;;;;;;10.75;7.28;;;15.00;99.90;;;;;;5097903;28;20024;-72
2023/09/06 07:47:52;;;;;;;11.30;8.07;;;15.10;99.90;;;;;;5115708;28;20433;-72
2023/09/06 07:50:18;;;;;;;13.20;8.50;;;15.20;99.90;;;;;;5080461;28;20024;-72
2023/09/06 07:52:44;;;;;;;11.10;6.80;;;15.40;99.90;;;;;;5115684;28;20148;-72
2023/09/06 07:55:09;;;;;;;10.98;7.22;;;15.40;99.90;;;;;;5097410;28;20499;-72
2023/09/06 07:57:35;;;;;;;8.02;5.47;;;15.50;99.90;;;;;;5096761;28;20039;-72
2023/09/06 08:00:01;;;;;;;7.85;5.07;;;15.60;99.90;;;;;;5080261;28;20031;-72
2023/09/06 08:02:26;;;;;;;8.88;5.50;;;15.80;99.90;;;;;;5115410;28;20027;-72
2023/09/06 08:04:52;;;;;;;8.63;5.60;;;15.90;99.90;;;;;;5115454;28;20028;-72
2023/09/06 08:07:19;;;;;;;8.13;5.53;;;15.90;99.90;;;;;;5115232;28;20102;-72
2023/09/06 08:09:45;;;;;;;8.25;5.28;;;16.00;99.90;;;;;;5115344;28;20112;-72
2023/09/06 08:12:11;;;;;;;9.45;5.68;;;16.10;99.90;;;;;;5115274;28;20051;-72
2023/09/06 08:14:38;;;;;;;8.50;5.22;;;16.20;99.90;;;;;;5097313;28;20026;-72
2023/09/06 08:17:04;;;;;;;10.60;5.97;;;16.30;99.90;;;;;;5115137;28;20020;-72
2023/09/06 08:19:30;;;;;;;8.80;5.60;;;16.50;99.90;;;;;;5115443;28;20035;-72
2023/09/06 08:21:56;;;;;;;9.77;5.10;;;16.60;99.90;;;;;;5113630;28;20467;-72
2023/09/06 08:24:21;;;;;;;7.20;5.32;;;16.80;99.90;;;;;;5096798;28;20032;-72
2023/09/06 08:26:50;;;;;;;9.07;5.57;;;16.90;99.90;;;;;;5114882;28;20031;-72
2023/09/06 08:29:16;;;;;;;8.57;6.35;;;17.00;99.90;;;;;;5114778;28;20080;-72
2023/09/06 08:31:41;;;;;;;11.18;6.35;;;17.30;99.90;;;;;;5096640;28;20020;-72
2023/09/06 08:34:09;;;;;;;11.32;6.55;;;17.40;99.90;;;;;;5114843;28;20027;-72
2023/09/06 08:36:35;;;;;;;6.82;5.03;;;17.60;99.90;;;;;;5114849;28;20077;-72
2023/09/06 08:39:01;;;;;;;8.15;4.47;;;17.80;99.90;;;;;;5114704;28;20028;-72
2023/09/06 08:41:28;;;;;;;6.68;4.10;;;17.90;99.90;;;;;;5096424;28;20126;-72
2023/09/06 08:43:54;;;;;;;7.13;3.80;;;18.10;99.90;;;;;;5114619;28;20035;-72
2023/09/06 08:46:29;;;;;;;5.20;3.80;;;18.20;99.90;;;;;;5096556;28;20392;-73
2023/09/06 08:48:58;;;;;;;6.28;3.75;;;18.40;99.90;;;;;;5115529;27;20054;-73
2023/09/06 08:51:25;;;;;;;6.43;3.30;;;18.50;99.90;;;;;;5114342;28;20022;-72
2023/09/06 08:53:52;;;;;;;4.60;3.45;;;18.60;99.90;;;;;;5114170;28;20035;-72
2023/09/06 08:56:19;;;;;;;6.80;3.80;;;18.80;99.90;;;;;;5096165;28;20035;-72
2023/09/06 08:58:44;;;;;;;5.30;3.63;;;18.90;99.90;;;;;;5114337;28;20140;-72
2023/09/06 09:01:10;;;;;;;4.90;3.50;;;19.00;99.90;;;;;;5114245;28;20485;-72
2023/09/06 09:03:36;;;;;;;5.15;3.63;;;19.20;99.90;;;;;;5114135;28;20027;-72
2023/09/06 09:06:09;;;;;;;4.50;3.22;;;19.30;99.90;;;;;;5114205;28;20027;-72
2023/09/06 09:08:35;;;;;;;6.43;4.22;;;19.40;99.90;;;;;;5114120;28;20077;-72
2023/09/06 09:11:11;;;;;;;6.45;3.80;;;19.50;99.90;;;;;;5113943;28;20020;-73
2023/09/06 09:13:37;;;;;;;7.00;3.85;;;19.60;99.90;;;;;;5114068;28;20488;-72
2023/09/06 09:16:10;;;;;;;5.35;3.63;;;19.70;99.90;;;;;;5114125;28;20073;-73
2023/09/06 09:18:42;;;;;;;4.90;3.15;;;19.90;99.90;;;;;;5113982;28;20038;-73
2023/09/06 09:21:13;;;;;;;6.35;3.85;;;20.00;99.90;;;;;;5096055;28;20069;-73
2023/09/06 09:23:47;;;;;;;5.10;3.65;;;20.20;99.90;;;;;;5114547;28;20090;-73
2023/09/06 09:26:13;;;;;;;5.80;3.30;;;20.40;99.90;;;;;;5114186;28;20024;-72
2023/09/06 09:28:42;;;;;;;5.28;3.72;;;20.50;99.90;;;;;;5113945;28;20023;-73
2023/09/06 09:31:15;;;;;;;7.05;4.20;;;20.60;99.90;;;;;;5113896;28;20077;-73
2023/09/06 09:33:49;;;;;;;5.38;3.70;;;20.70;99.90;;;;;;5113874;28;20031;-72
2023/09/06 09:36:16;;;;;;;4.82;3.72;;;20.90;99.90;;;;;;5114387;28;20019;-73
2023/09/06 09:38:50;;;;;;;4.93;3.40;;;21.00;99.90;;;;;;5114137;28;20107;-73
2023/09/06 09:41:16;;;;;;;6.63;3.80;;;21.10;99.90;;;;;;5114084;28;20475;-73
2023/09/06 09:43:42;;;;;;;4.78;3.40;;;21.30;99.90;;;;;;5078818;28;20032;-73
2023/09/06 09:46:09;;;;;;;9.48;4.53;;;21.30;99.90;;;;;;5113927;28;20034;-73
2023/09/06 09:48:36;;;;;;;7.80;3.65;;;21.40;99.90;;;;;;5113693;28;20027;-72
2023/09/06 09:51:04;;;;;;;6.22;3.88;;;21.50;99.90;;;;;;5113789;28;20425;-73
2023/09/06 09:53:32;;;;;;;7.68;4.28;;;21.60;99.90;;;;;;5113835;28;20031;-73
2023/09/06 09:56:04;;;;;;;6.25;4.90;;;21.70;99.90;;;;;;5095536;28;20063;-72
2023/09/06 09:58:34;;;;;;;5.88;3.92;;;21.80;99.90;;;;;;5113676;28;20016;-72
2023/09/06 10:01:01;;;;;;;6.07;4.20;;;21.90;99.90;;;;;;5113688;28;20027;-73
2023/09/06 10:03:27;;;;;;;8.70;4.20;;;22.10;99.90;;;;;;5095644;28;20023;-73
2023/09/06 10:05:53;;;;;;;6.70;3.53;;;22.20;99.90;;;;;;5113662;28;20028;-73
2023/09/06 10:08:21;;;;;;;5.70;3.53;;;22.30;99.90;;;;;;5113595;28;20030;-73
2023/09/06 10:10:47;;;;;;;6.20;3.10;;;22.40;99.50;;;;;;5113531;28;20020;-73
2023/09/06 10:13:16;;;;;;;4.85;3.25;;;22.40;97.70;;;;;;5095659;28;20118;-73
2023/09/06 10:15:43;;;;;;;6.85;3.00;;;22.60;97.60;;;;;;5078552;28;20115;-73
2023/09/06 10:18:09;;;;;;;4.75;2.80;;;22.70;96.90;;;;;;5113559;28;20027;-73
2023/09/06 10:20:37;;;;;;;4.20;2.70;;;22.70;96.80;;;;;;5113809;28;20034;-73
2023/09/06 10:23:05;;;;;;;4.57;2.97;;;22.90;96.40;;;;;;5098896;28;20047;-73
2023/09/06 10:25:31;;;;;;;7.53;3.20;;;23.00;96.70;;;;;;5117707;28;20024;-73
2023/09/06 10:27:59;;;;;;;4.72;2.78;;;23.10;96.30;;;;;;5099501;28;20480;-73
2023/09/06 10:30:48;;;;;;;4.72;3.22;;;23.10;96.80;;;;;;5117387;28;20476;-72
2023/09/06 10:33:46;;;;;;;5.63;3.10;;;23.20;96.00;;;;;;5117404;28;20025;-73
2023/09/06 10:36:13;;;;;;;7.85;3.40;;;23.40;96.50;;;;;;5117195;28;20019;-73
2023/09/06 10:38:51;;;;;;;4.50;3.28;;;23.60;95.00;;;;;;5117184;28;20072;-73
2023/09/06 10:41:18;;;;;;;5.55;3.17;;;23.70;96.10;;;;;;5117072;28;20020;-73
2023/09/06 10:44:03;;;;;;;6.30;3.67;;;23.90;96.00;;;;;;5099073;28;20020;-73
2023/09/06 10:46:29;;;;;;;4.47;2.97;;;24.00;95.70;;;;;;5098684;28;20023;-73
2023/09/06 10:49:13;;;;;;;3.85;3.20;;;24.10;95.10;;;;;;5117166;28;20414;-74
2023/09/06 10:51:55;;;;;;;4.97;2.90;;;24.20;94.10;;;;;;5116803;28;20095;-73
2023/09/06 10:54:40;;;;;;;5.45;2.63;;;24.30;92.60;;;;;;5116588;28;20027;-73
2023/09/06 10:57:11;;;;;;;4.15;2.70;;;24.40;92.60;;;;;;5117050;28;20024;-74
2023/09/06 10:59:37;;;;;;;4.18;2.92;;;24.40;91.60;;;;;;5116602;28;20027;-73
2023/09/06 11:02:27;;;;;;;4.13;2.70;;;24.50;92.20;;;;;;5116558;28;20039;-73
2023/09/06 11:08:27;;;;;;;4.43;2.85;;;24.70;92.40;;;;;;5116661;28;20140;-73
2023/09/06 11:11:02;;;;;;;5.03;2.95;;;24.80;91.60;;;;;;5116537;28;20043;-73
2023/09/06 11:16:49;;;;;;;3.53;2.50;;;25.10;92.60;;;;;;5116578;28;20061;-73
2023/09/06 11:19:25;;;;;;;4.28;2.70;;;25.20;92.60;;;;;;5116283;28;20036;-73
2023/09/06 11:22:06;;;;;;;6.00;2.88;;;25.40;91.90;;;;;;5116238;28;20034;-72
2023/09/06 11:24:35;;;;;;;4.72;2.90;;;25.50;92.50;;;;;;5116470;28;20083;-73
2023/09/06 11:27:21;;;;;;;4.30;2.80;;;25.60;91.10;;;;;;5097877;28;20445;-73
2023/09/06 11:29:57;;;;;;;3.88;2.80;;;25.80;90.90;;;;;;5116469;28;20031;-73
2023/09/06 11:32:23;;;;;;;5.88;3.20;;;25.80;89.70;;;;;;5115568;28;20024;-73
2023/09/06 11:34:49;;;;;;;3.67;2.50;;;25.90;90.80;;;;;;5116048;28;20019;-73
2023/09/06 11:37:16;;;;;;;3.67;2.50;;;26.00;91.10;;;;;;5097766;28;20028;-73
2023/09/06 11:39:44;;;;;;;3.58;2.67;;;26.10;86.90;;;;;;5097687;28;20047;-73
2023/09/06 11:42:15;;;;;;;3.50;2.67;;;26.10;87.70;;;;;;5115871;28;20024;-73
2023/09/06 11:44:47;;;;;;;3.90;2.65;;;26.10;87.50;;;;;;5097527;28;20047;-73
2023/09/06 11:47:27;;;;;;;3.90;2.45;;;26.20;89.60;;;;;;5116108;28;20409;-72
2023/09/06 11:49:55;;;;;;;4.87;2.57;;;26.40;87.80;;;;;;5116329;28;20112;-73
2023/09/06 11:52:23;;;;;;;4.32;2.70;;;26.50;85.60;;;;;;5116039;28;20493;-73
2023/09/06 11:54:52;;;;;;;6.50;2.55;;;26.60;87.90;;;;;;5115537;28;20525;-73
2023/09/06 11:57:26;;;;;;;4.35;2.30;;;26.70;88.50;;;;;;5116141;28;20036;-73
2023/09/06 11:59:58;;;;;;;4.97;2.50;;;26.80;88.90;;;;;;5098063;28;20023;-73
2023/09/06 12:02:29;;;;;;;4.88;2.72;;;26.80;85.30;;;;;;5115466;28;20041;-72
2023/09/06 12:05:03;;;;;;;;;;;26.90;82.60;;;;;;5097866;28;20425;-73
2023/09/06 12:07:30;;;;;;;3.65;2.30;;;26.90;83.90;;;;;;5097029;28;19911;-74
2023/09/06 12:09:57;;;;;;;3.88;2.10;;;26.90;86.80;;;;;;5115565;28;20023;-73
2023/09/06 12:12:25;;;;;;;3.80;2.30;;;27.10;83.10;;;;;;5110712;28;20909;-73
2023/09/06 12:14:50;;;;;;;4.28;2.42;;;27.20;80.80;;;;;;5110215;28;20371;-73
2023/09/06 12:17:18;;;;;;;6.82;2.40;;;27.30;80.00;;;;;;5095103;28;20171;-73
2023/09/06 12:19:44;;;;;;;4.68;2.58;;;27.40;82.80;;;;;;5102946;28;20023;-73
2023/09/06 12:22:14;;;;;;;3.53;2.53;;;27.50;78.40;;;;;;5094467;28;20437;-73
2023/09/06 12:24:45;;;;;;;3.15;2.17;;;27.60;80.10;;;;;;5094769;28;20024;-73
2023/09/06 12:27:14;;;;;;;4.40;2.90;;;27.50;79.10;;;;;;5094227;28;20062;-73
2023/09/06 12:29:40;;;;;;;4.45;2.30;;;27.60;76.70;;;;;;5076567;28;20400;-73
2023/09/06 12:32:07;;;;;;;3.63;2.33;;;27.70;76.10;;;;;;5104883;28;20472;-73
2023/09/06 12:34:33;;;;;;;3.35;2.40;;;27.80;78.10;;;;;;5114865;28;20034;-73
2023/09/06 12:36:59;;;;;;;3.10;2.13;;;27.80;76.90;;;;;;5105403;28;20016;-73
2023/09/06 12:39:25;;;;;;;4.50;2.45;;;27.90;75.50;;;;;;5114256;27;20035;-73
2023/09/06 12:41:50;;;;;;;3.50;2.15;;;28.00;77.20;;;;;;5096488;28;20061;-73
2023/09/06 12:44:16;;;;;;;4.07;2.35;;;28.10;75.90;;;;;;5113569;28;20028;-73
2023/09/06 12:46:42;;;;;;;3.75;2.58;;;28.30;75.40;;;;;;5113347;28;20026;-73
2023/09/06 12:49:07;;;;;;;3.80;2.35;;;28.30;77.10;;;;;;5113966;28;20480;-73
2023/09/06 12:51:33;;;;;;;3.08;2.30;;;28.40;77.10;;;;;;5114370;28;20048;-73
2023/09/06 12:53:59;;;;;;;4.05;2.80;;;28.30;76.20;;;;;;5095789;28;20454;-72
2023/09/06 12:56:24;;;;;;;3.50;2.22;;;28.40;73.50;;;;;;5096337;28;20024;-73
2023/09/06 12:58:50;;;;;;;5.35;2.58;;;28.40;75.10;;;;;;5113405;28;20027;-73
2023/09/06 13:01:16;;;;;;;3.92;2.72;;;28.30;74.90;;;;;;5094696;28;20033;-74